createdAt,value
2023-04-19T00:00:13.076Z,24.30
2023-04-19T00:01:13.120Z,24.27
2023-04-19T00:02:13.339Z,24.27
2023-04-19T00:03:13.358Z,24.27
2023-04-19T00:04:13.663Z,24.26
2023-04-19T00:05:13.432Z,24.26
2023-04-19T00:06:13.422Z,24.23
2023-04-19T00:07:13.529Z,24.23
2023-04-19T00:08:13.565Z,24.23
2023-04-19T00:09:13.633Z,24.23
2023-04-19T00:10:13.706Z,24.19
2023-04-19T00:11:13.766Z,24.19
2023-04-19T00:12:13.846Z,24.17
2023-04-19T00:13:13.946Z,24.16
2023-04-19T00:14:14.550Z,24.19
2023-04-19T00:15:14.054Z,24.16
2023-04-19T00:16:14.179Z,24.15
2023-04-19T00:17:14.196Z,24.13
2023-04-19T00:18:14.268Z,24.16
2023-04-19T00:19:14.344Z,24.15
2023-04-19T00:20:14.414Z,24.13
2023-04-19T00:21:14.482Z,24.12
2023-04-19T00:22:14.569Z,24.12
2023-04-19T00:23:14.637Z,24.13
2023-04-19T00:24:14.896Z,24.10
2023-04-19T00:25:14.812Z,24.12
2023-04-19T00:26:14.859Z,24.10
2023-04-19T00:27:14.927Z,24.09
2023-04-19T00:28:15.008Z,24.10
2023-04-19T00:29:15.105Z,24.09
2023-04-19T00:30:15.155Z,24.08
2023-04-19T00:31:15.257Z,24.09
2023-04-19T00:32:15.296Z,24.09
2023-04-19T00:33:15.437Z,24.05
2023-04-19T00:34:15.779Z,24.06
2023-04-19T00:35:15.549Z,24.06
2023-04-19T00:36:15.647Z,24.05
2023-04-19T00:37:15.681Z,24.06
2023-04-19T00:38:15.772Z,24.05
2023-04-19T00:39:15.843Z,24.05
2023-04-19T00:40:15.916Z,24.03
2023-04-19T00:41:15.983Z,24.05
2023-04-19T00:42:16.053Z,24.05
2023-04-19T00:43:16.128Z,24.03
2023-04-19T00:44:16.424Z,24.03
2023-04-19T00:45:16.329Z,24.05
2023-04-19T00:46:16.421Z,24.03
2023-04-19T00:47:16.436Z,24.05
2023-04-19T00:48:16.534Z,24.05
2023-04-19T00:49:16.615Z,24.05
2023-04-19T00:50:16.663Z,24.02
2023-04-19T00:51:16.733Z,24.03
2023-04-19T00:52:16.809Z,24.03
2023-04-19T00:53:16.892Z,24.05
2023-04-19T00:54:17.249Z,24.03
2023-04-19T00:55:17.042Z,24.03
2023-04-19T00:56:17.116Z,24.02
2023-04-19T00:57:17.191Z,24.01
2023-04-19T00:58:17.257Z,24.01
2023-04-19T00:59:17.341Z,24.02
2023-04-19T01:00:17.420Z,24.01
2023-04-19T01:01:17.549Z,24.01
2023-04-19T01:02:17.737Z,24.03
2023-04-19T01:03:17.740Z,24.01
2023-04-19T01:04:17.953Z,24.01
2023-04-19T01:05:17.781Z,24.02
2023-04-19T01:06:17.881Z,24.01
2023-04-19T01:07:18.033Z,24.02
2023-04-19T01:08:18.007Z,23.99
2023-04-19T01:09:18.093Z,24.02
2023-04-19T01:10:18.163Z,24.01
2023-04-19T01:11:18.253Z,24.01
2023-04-19T01:12:18.322Z,23.99
2023-04-19T01:13:18.407Z,23.99
2023-04-19T01:14:18.490Z,23.99
2023-04-19T01:15:18.573Z,23.98
2023-04-19T01:16:18.694Z,24.01
2023-04-19T01:17:18.759Z,24.01
2023-04-19T01:18:18.804Z,24.01
2023-04-19T01:19:18.889Z,23.99
2023-04-19T01:20:18.969Z,23.99
2023-04-19T01:21:19.067Z,24.01
2023-04-19T01:22:19.129Z,24.01
2023-04-19T01:23:19.223Z,23.99
2023-04-19T01:24:19.282Z,23.98
2023-04-19T01:25:19.361Z,23.99
2023-04-19T01:26:20.280Z,24.01
2023-04-19T01:27:19.519Z,23.99
2023-04-19T01:28:19.592Z,23.99
2023-04-19T01:29:19.670Z,24.01
2023-04-19T01:30:19.759Z,23.99
2023-04-19T01:31:19.873Z,23.99
2023-04-19T01:32:19.988Z,24.01
2023-04-19T01:33:20.086Z,24.02
2023-04-19T01:34:20.074Z,24.01
2023-04-19T01:35:20.159Z,23.99
2023-04-19T01:36:20.232Z,23.99
2023-04-19T01:37:20.323Z,24.01
2023-04-19T01:38:20.406Z,23.98
2023-04-19T01:39:20.474Z,23.98
2023-04-19T01:40:20.555Z,24.01
2023-04-19T01:41:20.636Z,23.98
2023-04-19T01:42:20.722Z,23.99
2023-04-19T01:43:20.825Z,23.99
2023-04-19T01:44:20.891Z,23.99
2023-04-19T01:45:20.973Z,24.01
2023-04-19T01:46:21.075Z,23.99
2023-04-19T01:47:21.130Z,23.99
2023-04-19T01:48:21.219Z,23.99
2023-04-19T01:49:21.309Z,23.99
2023-04-19T01:50:21.367Z,24.02
2023-04-19T01:51:21.448Z,23.99
2023-04-19T01:52:21.536Z,24.01
2023-04-19T01:53:21.602Z,24.01
2023-04-19T01:54:21.685Z,23.98
2023-04-19T01:55:21.752Z,23.99
2023-04-19T01:56:21.852Z,23.99
2023-04-19T01:57:21.911Z,24.01
2023-04-19T01:58:21.988Z,23.99
2023-04-19T01:59:22.064Z,23.98
2023-04-19T02:00:22.150Z,23.99
2023-04-19T02:01:22.336Z,24.01
2023-04-19T02:02:22.416Z,23.98
2023-04-19T02:03:22.542Z,23.98
2023-04-19T02:04:22.509Z,24.01
2023-04-19T02:05:22.589Z,23.98
2023-04-19T02:06:22.640Z,23.98
2023-04-19T02:07:22.723Z,23.99
2023-04-19T02:08:22.809Z,23.98
2023-04-19T02:09:22.885Z,23.98
2023-04-19T02:10:22.961Z,23.95
2023-04-19T02:11:23.039Z,23.99
2023-04-19T02:12:23.109Z,23.96
2023-04-19T02:13:23.181Z,23.98
2023-04-19T02:14:23.282Z,23.98
2023-04-19T02:15:23.350Z,23.98
2023-04-19T02:16:23.494Z,23.98
2023-04-19T02:17:23.528Z,23.99
2023-04-19T02:18:23.594Z,23.98
2023-04-19T02:19:23.682Z,23.99
2023-04-19T02:20:23.768Z,23.98
2023-04-19T02:21:23.874Z,23.98
2023-04-19T02:22:23.933Z,23.99
2023-04-19T02:23:24.008Z,23.96
2023-04-19T02:24:24.088Z,23.95
2023-04-19T02:25:24.170Z,23.96
2023-04-19T02:26:24.251Z,23.95
2023-04-19T02:27:24.362Z,23.99
2023-04-19T02:28:24.421Z,23.96
2023-04-19T02:29:24.504Z,23.95
2023-04-19T02:30:24.608Z,23.98
2023-04-19T02:31:24.712Z,23.99
2023-04-19T02:32:24.771Z,23.95
2023-04-19T02:33:25.568Z,23.96
2023-04-19T02:34:24.907Z,23.98
2023-04-19T02:35:24.997Z,23.95
2023-04-19T02:36:25.073Z,23.98
2023-04-19T02:37:25.180Z,23.96
2023-04-19T02:38:25.241Z,23.96
2023-04-19T02:39:25.332Z,23.96
2023-04-19T02:40:25.425Z,23.96
2023-04-19T02:41:25.509Z,23.95
2023-04-19T02:42:25.589Z,23.96
2023-04-19T02:43:25.673Z,23.96
2023-04-19T02:44:25.759Z,23.99
2023-04-19T02:45:25.842Z,23.96
2023-04-19T02:46:25.993Z,23.96
2023-04-19T02:47:26.030Z,23.96
2023-04-19T02:48:26.098Z,23.95
2023-04-19T02:49:26.167Z,23.93
2023-04-19T02:50:26.250Z,23.96
2023-04-19T02:51:26.335Z,23.96
2023-04-19T02:52:26.413Z,23.96
2023-04-19T02:53:26.519Z,23.93
2023-04-19T02:54:26.582Z,23.98
2023-04-19T02:55:26.661Z,23.96
2023-04-19T02:56:26.755Z,23.95
2023-04-19T02:57:26.832Z,23.95
2023-04-19T02:58:26.929Z,23.96
2023-04-19T02:59:27.013Z,23.96
2023-04-19T03:00:27.100Z,23.95
2023-04-19T03:01:27.203Z,23.95
2023-04-19T03:02:27.386Z,23.96
2023-04-19T03:03:27.415Z,23.95
2023-04-19T03:04:27.492Z,23.96
2023-04-19T03:05:27.519Z,23.92
2023-04-19T03:06:27.616Z,23.96
2023-04-19T03:07:27.715Z,23.95
2023-04-19T03:08:27.779Z,23.95
2023-04-19T03:09:28.023Z,23.95
2023-04-19T03:10:27.963Z,23.96
2023-04-19T03:11:28.050Z,23.95
2023-04-19T03:12:28.123Z,23.93
2023-04-19T03:13:28.212Z,23.96
2023-04-19T03:14:28.290Z,23.95
2023-04-19T03:15:28.368Z,23.96
2023-04-19T03:16:28.520Z,23.98
2023-04-19T03:17:28.589Z,23.95
2023-04-19T03:18:28.617Z,23.96
2023-04-19T03:19:28.712Z,23.96
2023-04-19T03:20:28.786Z,23.96
2023-04-19T03:21:28.888Z,23.98
2023-04-19T03:22:28.964Z,23.95
2023-04-19T03:23:29.048Z,23.96
2023-04-19T03:24:29.147Z,23.98
2023-04-19T03:25:29.239Z,24.01
2023-04-19T03:26:29.279Z,24.01
2023-04-19T03:27:29.346Z,24.01
2023-04-19T03:28:29.410Z,24.05
2023-04-19T03:29:29.511Z,24.06
2023-04-19T03:30:29.542Z,24.09
2023-04-19T03:31:29.700Z,24.13
2023-04-19T03:32:29.734Z,24.13
2023-04-19T03:33:29.746Z,24.13
2023-04-19T03:34:29.872Z,24.13
2023-04-19T03:35:29.879Z,24.13
2023-04-19T03:36:29.953Z,24.12
2023-04-19T03:37:30.022Z,24.12
2023-04-19T03:38:30.087Z,24.10
2023-04-19T03:39:30.143Z,24.13
2023-04-19T03:40:30.216Z,24.13
2023-04-19T03:41:30.316Z,24.12
2023-04-19T03:42:30.363Z,24.13
2023-04-19T03:43:30.413Z,24.15
2023-04-19T03:44:30.483Z,24.12
2023-04-19T03:45:30.537Z,24.15
2023-04-19T03:46:30.637Z,24.15
2023-04-19T03:47:30.755Z,24.13
2023-04-19T03:48:30.726Z,24.16
2023-04-19T03:49:30.777Z,24.17
2023-04-19T03:50:30.883Z,24.17
2023-04-19T03:51:30.905Z,24.17
2023-04-19T03:52:30.969Z,24.16
2023-04-19T03:53:31.016Z,24.15
2023-04-19T03:54:31.068Z,24.17
2023-04-19T03:55:31.125Z,24.17
2023-04-19T03:56:31.188Z,24.20
2023-04-19T03:57:31.284Z,24.17
2023-04-19T03:58:31.312Z,24.17
2023-04-19T03:59:31.358Z,24.20
2023-04-19T04:00:31.413Z,24.19
2023-04-19T04:01:31.473Z,24.17
2023-04-19T04:02:31.627Z,24.17
2023-04-19T04:03:31.800Z,24.19
2023-04-19T04:04:31.982Z,24.22
2023-04-19T04:05:31.839Z,24.20
2023-04-19T04:06:31.749Z,24.19
2023-04-19T04:07:31.808Z,24.20
2023-04-19T04:08:31.843Z,24.23
2023-04-19T04:09:31.877Z,24.24
2023-04-19T04:10:31.943Z,24.20
2023-04-19T04:11:31.991Z,24.23
2023-04-19T04:12:32.062Z,24.20
2023-04-19T04:13:32.147Z,24.23
2023-04-19T04:14:32.163Z,24.24
2023-04-19T04:15:32.201Z,24.22
2023-04-19T04:16:32.269Z,24.22
2023-04-19T04:17:32.318Z,24.20
2023-04-19T04:18:32.348Z,24.23
2023-04-19T04:19:32.397Z,24.23
2023-04-19T04:20:32.449Z,24.22
2023-04-19T04:21:32.494Z,24.22
2023-04-19T04:22:32.538Z,24.20
2023-04-19T04:23:32.581Z,24.23
2023-04-19T04:24:32.627Z,24.23
2023-04-19T04:25:32.681Z,24.24
2023-04-19T04:26:32.734Z,24.26
2023-04-19T04:27:32.776Z,24.27
2023-04-19T04:28:32.832Z,24.24
2023-04-19T04:29:32.904Z,24.27
2023-04-19T04:30:32.919Z,24.27
2023-04-19T04:31:32.998Z,24.26
2023-04-19T04:32:33.060Z,24.24
2023-04-19T04:33:33.062Z,24.26
2023-04-19T04:34:33.148Z,24.27
2023-04-19T04:35:33.159Z,24.27
2023-04-19T04:36:33.216Z,24.29
2023-04-19T04:37:33.244Z,24.27
2023-04-19T04:38:33.490Z,24.29
2023-04-19T04:39:33.328Z,24.30
2023-04-19T04:40:33.375Z,24.30
2023-04-19T04:41:33.420Z,24.29
2023-04-19T04:42:33.459Z,24.30
2023-04-19T04:43:33.507Z,24.33
2023-04-19T04:44:33.526Z,24.31
2023-04-19T04:45:33.607Z,24.33
2023-04-19T04:46:33.619Z,24.33
2023-04-19T04:47:34.653Z,24.34
2023-04-19T04:48:33.684Z,24.34
2023-04-19T04:49:33.733Z,24.34
2023-04-19T04:50:33.770Z,24.36
2023-04-19T04:51:33.817Z,24.36
2023-04-19T04:52:33.874Z,24.34
2023-04-19T04:53:33.906Z,24.34
2023-04-19T04:54:33.950Z,24.36
2023-04-19T04:55:33.994Z,24.34
2023-04-19T04:56:34.096Z,24.36
2023-04-19T04:57:34.088Z,24.34
2023-04-19T04:58:34.139Z,24.33
2023-04-19T04:59:34.176Z,24.34
2023-04-19T05:00:34.223Z,24.36
2023-04-19T05:01:34.302Z,24.34
2023-04-19T05:02:34.424Z,24.34
2023-04-19T05:03:34.391Z,24.33
2023-04-19T05:04:34.418Z,24.36
2023-04-19T05:05:34.426Z,24.36
2023-04-19T05:06:34.481Z,24.39
2023-04-19T05:07:34.504Z,24.37
2023-04-19T05:08:34.544Z,24.37
2023-04-19T05:09:34.579Z,24.36
2023-04-19T05:10:34.623Z,24.37
2023-04-19T05:11:34.665Z,24.39
2023-04-19T05:12:34.674Z,24.41
2023-04-19T05:13:34.705Z,24.41
2023-04-19T05:14:34.701Z,24.46
2023-04-19T05:15:34.705Z,24.44
2023-04-19T05:16:34.769Z,24.46
2023-04-19T05:17:34.793Z,24.48
2023-04-19T05:18:34.753Z,24.51
2023-04-19T05:19:34.783Z,24.50
2023-04-19T05:20:34.803Z,24.51
2023-04-19T05:21:35.167Z,24.53
2023-04-19T05:22:34.819Z,24.51
2023-04-19T05:23:34.865Z,24.51
2023-04-19T05:24:34.878Z,24.51
2023-04-19T05:25:34.880Z,24.56
2023-04-19T05:26:34.892Z,24.53
2023-04-19T05:27:35.471Z,24.56
2023-04-19T05:28:34.932Z,24.56
2023-04-19T05:29:34.965Z,24.53
2023-04-19T05:30:35.001Z,24.50
2023-04-19T05:31:35.088Z,24.51
2023-04-19T05:32:35.068Z,24.53
2023-04-19T05:33:35.124Z,24.51
2023-04-19T05:34:35.124Z,24.54
2023-04-19T05:35:35.629Z,24.56
2023-04-19T05:36:35.181Z,24.54
2023-04-19T05:37:35.207Z,24.60
2023-04-19T05:38:35.236Z,24.58
2023-04-19T05:39:35.266Z,24.58
2023-04-19T05:40:35.644Z,24.57
2023-04-19T05:41:35.325Z,24.58
2023-04-19T05:42:35.348Z,24.60
2023-04-19T05:43:35.435Z,24.58
2023-04-19T05:44:35.439Z,24.56
2023-04-19T05:45:36.133Z,24.60
2023-04-19T05:46:35.576Z,24.58
2023-04-19T05:47:35.657Z,24.58
2023-04-19T05:48:35.507Z,24.61
2023-04-19T05:49:35.569Z,24.54
2023-04-19T05:50:35.574Z,24.57
2023-04-19T05:51:35.611Z,24.57
2023-04-19T05:52:35.636Z,24.57
2023-04-19T05:53:36.138Z,24.58
2023-04-19T05:54:35.699Z,24.57
2023-04-19T05:55:35.772Z,24.57
2023-04-19T05:56:36.225Z,24.58
2023-04-19T05:57:39.010Z,24.57
2023-04-19T05:58:36.199Z,24.54
2023-04-19T05:59:36.171Z,24.60
2023-04-19T06:00:35.920Z,24.61
2023-04-19T06:01:35.867Z,24.67
2023-04-19T06:02:36.287Z,24.66
2023-04-19T06:03:36.205Z,24.70
2023-04-19T06:04:36.429Z,24.70
2023-04-19T06:05:35.850Z,24.74
2023-04-19T06:06:35.817Z,24.75
2023-04-19T06:07:42.853Z,24.81
2023-04-19T06:08:36.867Z,24.81
2023-04-19T06:09:35.815Z,24.86
2023-04-19T06:10:48.762Z,24.86
2023-04-19T06:11:47.127Z,24.86
2023-04-19T06:12:36.825Z,24.88
2023-04-19T06:13:35.798Z,24.95
2023-04-19T06:14:36.154Z,24.99
2023-04-19T06:15:35.797Z,25.03
2023-04-19T06:16:35.906Z,25.05
2023-04-19T06:17:35.874Z,25.05
2023-04-19T06:18:35.776Z,25.06
2023-04-19T06:19:37.146Z,25.11
2023-04-19T06:20:35.766Z,25.18
2023-04-19T06:21:35.810Z,25.18
2023-04-19T06:22:35.854Z,25.22
2023-04-19T06:23:35.883Z,25.23
2023-04-19T06:24:36.161Z,25.26
2023-04-19T06:25:37.175Z,25.30
2023-04-19T06:26:36.041Z,25.30
2023-04-19T06:27:36.009Z,25.33
2023-04-19T06:28:36.234Z,25.32
2023-04-19T06:29:36.103Z,25.33
2023-04-19T06:30:36.177Z,25.37
2023-04-19T06:31:36.224Z,25.40
2023-04-19T06:32:36.320Z,25.41
2023-04-19T06:33:36.314Z,25.43
2023-04-19T06:34:37.056Z,25.40
2023-04-19T06:35:36.468Z,25.43
2023-04-19T06:36:36.485Z,25.44
2023-04-19T06:37:36.715Z,25.49
2023-04-19T06:38:36.597Z,25.50
2023-04-19T06:39:36.686Z,25.49
2023-04-19T06:40:37.885Z,25.43
2023-04-19T06:41:36.752Z,25.51
2023-04-19T06:42:36.755Z,25.47
2023-04-19T06:43:37.183Z,25.50
2023-04-19T06:44:36.898Z,25.54
2023-04-19T06:45:37.248Z,25.57
2023-04-19T06:46:36.969Z,25.57
2023-04-19T06:47:38.064Z,25.57
2023-04-19T06:48:37.185Z,25.53
2023-04-19T06:49:37.130Z,25.58
2023-04-19T06:50:37.389Z,25.60
2023-04-19T06:51:37.228Z,25.63
2023-04-19T06:52:37.217Z,25.64
2023-04-19T06:53:37.471Z,25.64
2023-04-19T06:54:37.666Z,25.67
2023-04-19T06:55:37.672Z,25.63
2023-04-19T06:56:37.448Z,25.66
2023-04-19T06:57:37.764Z,25.60
2023-04-19T06:58:37.523Z,25.64
2023-04-19T06:59:37.582Z,25.60
2023-04-19T07:00:37.662Z,25.61
2023-04-19T07:01:37.739Z,25.63
2023-04-19T07:02:37.858Z,25.61
2023-04-19T07:03:38.056Z,25.61
2023-04-19T07:04:38.250Z,25.58
2023-04-19T07:05:37.988Z,25.61
2023-04-19T07:06:39.689Z,25.58
2023-04-19T07:07:38.630Z,25.58
2023-04-19T07:08:49.329Z,25.61
2023-04-19T07:09:38.323Z,25.58
2023-04-19T07:10:38.289Z,25.60
2023-04-19T07:11:38.671Z,25.63
2023-04-19T07:12:38.280Z,25.61
2023-04-19T07:13:38.256Z,25.61
2023-04-19T07:14:38.280Z,25.63
2023-04-19T07:15:38.286Z,25.63
2023-04-19T07:16:38.669Z,25.64
2023-04-19T07:17:38.327Z,25.64
2023-04-19T07:18:38.264Z,25.61
2023-04-19T07:19:38.311Z,25.64
2023-04-19T07:20:38.371Z,25.63
2023-04-19T07:21:38.666Z,25.60
2023-04-19T07:22:38.538Z,25.63
2023-04-19T07:23:38.569Z,25.63
2023-04-19T07:24:39.053Z,25.61
2023-04-19T07:25:38.765Z,25.56
2023-04-19T07:26:38.715Z,25.54
2023-04-19T07:27:38.780Z,25.58
2023-04-19T07:28:39.164Z,25.58
2023-04-19T07:29:38.871Z,25.57
2023-04-19T07:30:38.925Z,25.57
2023-04-19T07:31:39.080Z,25.53
2023-04-19T07:32:39.360Z,25.53
2023-04-19T07:33:39.098Z,25.53
2023-04-19T07:34:39.168Z,25.53
2023-04-19T07:35:39.176Z,25.50
2023-04-19T07:36:39.222Z,25.50
2023-04-19T07:37:39.327Z,25.49
2023-04-19T07:38:39.672Z,25.49
2023-04-19T07:39:39.448Z,25.47
2023-04-19T07:40:39.434Z,25.46
2023-04-19T07:41:39.646Z,25.47
2023-04-19T07:42:39.667Z,25.46
2023-04-19T07:43:41.105Z,25.44
2023-04-19T07:44:40.188Z,25.41
2023-04-19T07:45:42.987Z,25.43
2023-04-19T07:46:39.787Z,25.43
2023-04-19T07:47:39.830Z,25.40
2023-04-19T07:48:40.770Z,25.41
2023-04-19T07:49:39.904Z,25.44
2023-04-19T07:50:40.191Z,25.43
2023-04-19T07:51:40.001Z,25.39
2023-04-19T07:52:40.057Z,25.37
2023-04-19T07:53:40.114Z,25.39
2023-04-19T07:54:40.160Z,25.36
2023-04-19T07:55:40.673Z,25.36
2023-04-19T07:56:40.277Z,25.37
2023-04-19T07:57:40.710Z,25.37
2023-04-19T07:58:40.399Z,25.41
2023-04-19T07:59:40.680Z,25.43
2023-04-19T08:00:40.520Z,25.46
2023-04-19T08:01:40.741Z,25.46
2023-04-19T08:02:40.766Z,25.43
2023-04-19T08:03:40.854Z,25.44
2023-04-19T08:04:41.452Z,25.49
2023-04-19T08:05:41.357Z,25.50
2023-04-19T08:06:40.862Z,25.50
2023-04-19T08:07:41.179Z,25.50
2023-04-19T08:08:41.018Z,25.54
2023-04-19T08:09:41.071Z,25.53
2023-04-19T08:10:41.068Z,25.58
2023-04-19T08:11:41.145Z,25.56
2023-04-19T08:12:47.730Z,25.58
2023-04-19T08:13:42.152Z,25.58
2023-04-19T08:14:56.177Z,25.57
2023-04-19T08:17:10.933Z,25.57
2023-04-19T08:17:42.348Z,25.58
2023-04-19T08:18:41.244Z,25.57
2023-04-19T08:19:41.290Z,25.60
2023-04-19T08:20:41.344Z,25.60
2023-04-19T08:21:41.841Z,25.61
2023-04-19T08:22:41.445Z,25.60
2023-04-19T08:23:48.371Z,25.61
2023-04-19T08:24:41.508Z,25.61
2023-04-19T08:25:41.695Z,25.63
2023-04-19T08:26:41.441Z,25.61
2023-04-19T08:27:41.426Z,25.60
2023-04-19T08:28:41.410Z,25.61
2023-04-19T08:29:41.473Z,25.61
2023-04-19T08:30:41.407Z,25.64
2023-04-19T08:31:41.384Z,25.66
2023-04-19T08:32:41.407Z,25.67
2023-04-19T08:33:41.342Z,25.70
2023-04-19T08:34:41.717Z,25.67
2023-04-19T08:35:41.838Z,25.66
2023-04-19T08:36:45.927Z,25.61
2023-04-19T08:37:41.279Z,25.63
2023-04-19T08:38:44.559Z,25.61
2023-04-19T08:39:41.244Z,25.63
2023-04-19T08:40:41.705Z,25.60
2023-04-19T08:41:41.262Z,25.58
2023-04-19T08:42:41.701Z,25.60
2023-04-19T08:43:41.822Z,25.58
2023-04-19T08:44:53.826Z,25.58
2023-04-19T08:45:41.338Z,25.57
2023-04-19T08:46:41.186Z,25.60
2023-04-19T08:47:56.166Z,25.58
2023-04-19T08:48:41.196Z,25.60
2023-04-19T08:49:43.321Z,25.58
2023-04-19T08:50:52.460Z,25.60
2023-04-19T08:51:41.182Z,25.58
2023-04-19T08:52:51.484Z,25.60
2023-04-19T08:53:41.117Z,25.56
2023-04-19T08:54:41.196Z,25.58
2023-04-19T08:55:51.005Z,25.60
2023-04-19T08:56:41.111Z,25.63
2023-04-19T08:57:41.055Z,25.60
2023-04-19T08:58:54.881Z,25.63
2023-04-19T08:59:41.199Z,25.66
2023-04-19T09:00:41.211Z,25.64
2023-04-19T09:02:40.120Z,25.66
2023-04-19T09:03:55.318Z,25.66
2023-04-19T09:04:41.314Z,25.68
2023-04-19T09:05:41.608Z,25.70
2023-04-19T09:06:41.471Z,25.71
2023-04-19T09:07:41.198Z,25.70
2023-04-19T09:08:40.953Z,25.73
2023-04-19T09:09:55.560Z,25.71
2023-04-19T09:10:40.947Z,25.73
2023-04-19T09:11:40.944Z,25.71
2023-04-19T09:12:41.213Z,25.74
2023-04-19T09:13:40.913Z,25.73
2023-04-19T09:14:45.050Z,25.74
2023-04-19T09:15:41.291Z,25.76
2023-04-19T09:16:40.885Z,25.77
2023-04-19T09:17:41.068Z,25.76
2023-04-19T09:18:56.210Z,25.76
2023-04-19T09:19:40.862Z,25.78
2023-04-19T09:20:40.850Z,25.78
2023-04-19T09:21:40.852Z,25.80
2023-04-19T09:22:40.806Z,25.81
2023-04-19T09:23:40.786Z,25.81
2023-04-19T09:25:59.297Z,25.83
2023-04-19T09:26:40.742Z,25.85
2023-04-19T09:27:40.732Z,25.87
2023-04-19T09:28:40.713Z,25.88
2023-04-19T09:29:40.724Z,25.88
2023-04-19T09:30:57.026Z,25.88
2023-04-19T09:31:51.079Z,25.91
2023-04-19T09:32:40.786Z,25.91
2023-04-19T09:33:40.717Z,25.87
2023-04-19T09:34:40.655Z,25.88
2023-04-19T09:35:40.731Z,25.88
2023-04-19T09:36:40.713Z,25.88
2023-04-19T09:38:04.183Z,25.89
2023-04-19T09:38:41.291Z,25.88
2023-04-19T09:39:40.588Z,25.89
2023-04-19T09:40:40.576Z,25.88
2023-04-19T09:41:42.540Z,25.85
2023-04-19T09:42:59.672Z,25.83
2023-04-19T09:45:02.206Z,25.88
2023-04-19T09:45:40.525Z,25.85
2023-04-19T09:46:40.615Z,25.85
2023-04-19T09:47:40.513Z,25.85
2023-04-19T09:48:40.490Z,25.85
2023-04-19T09:49:48.385Z,25.85
2023-04-19T09:50:53.673Z,25.88
2023-04-19T09:51:40.721Z,25.87
2023-04-19T09:52:40.432Z,25.85
2023-04-19T09:53:40.436Z,25.87
2023-04-19T09:54:40.408Z,25.87
2023-04-19T09:55:52.447Z,25.83
2023-04-19T09:56:40.379Z,25.87
2023-04-19T09:57:40.359Z,25.88
2023-04-19T09:58:49.637Z,25.87
2023-04-19T09:59:40.351Z,25.89
2023-04-19T10:00:47.829Z,25.88
2023-04-19T10:01:40.379Z,25.91
2023-04-19T10:02:40.605Z,25.92
2023-04-19T10:03:40.393Z,25.94
2023-04-19T10:05:39.908Z,25.95
2023-04-19T10:07:06.896Z,25.96
2023-04-19T10:07:40.266Z,25.98
2023-04-19T10:08:40.186Z,26.01
2023-04-19T10:09:51.649Z,26.02
2023-04-19T10:10:42.305Z,26.02
2023-04-19T10:11:42.916Z,26.05
2023-04-19T10:13:04.070Z,26.06
2023-04-19T10:13:40.610Z,26.09
2023-04-19T10:14:40.063Z,26.08
2023-04-19T10:15:50.004Z,26.11
2023-04-19T10:16:40.522Z,26.13
2023-04-19T10:17:40.436Z,26.12
2023-04-19T10:18:40.435Z,26.15
2023-04-19T10:19:39.966Z,26.16
2023-04-19T10:20:40.250Z,26.18
2023-04-19T10:21:40.187Z,26.19
2023-04-19T10:22:39.913Z,26.19
2023-04-19T10:23:39.884Z,26.22
2023-04-19T10:24:39.873Z,26.22
2023-04-19T10:25:40.222Z,26.26
2023-04-19T10:26:39.821Z,26.26
2023-04-19T10:27:39.808Z,26.25
2023-04-19T10:28:39.783Z,26.26
2023-04-19T10:29:40.260Z,26.25
2023-04-19T10:30:39.732Z,26.26
2023-04-19T10:31:39.792Z,26.26
2023-04-19T10:32:39.728Z,26.28
2023-04-19T10:33:39.657Z,26.28
2023-04-19T10:34:39.641Z,26.29
2023-04-19T10:35:39.610Z,26.31
2023-04-19T10:36:39.580Z,26.31
2023-04-19T10:37:39.640Z,26.32
2023-04-19T10:38:39.545Z,26.35
2023-04-19T10:39:39.498Z,26.35
2023-04-19T10:40:39.478Z,26.35
2023-04-19T10:41:39.457Z,26.36
2023-04-19T10:42:39.443Z,26.36
2023-04-19T10:43:39.420Z,26.36
2023-04-19T10:44:39.389Z,26.36
2023-04-19T10:45:39.403Z,26.39
2023-04-19T10:46:39.386Z,26.42
2023-04-19T10:47:39.746Z,26.40
2023-04-19T10:48:39.345Z,26.39
2023-04-19T10:49:39.312Z,26.42
2023-04-19T10:50:39.282Z,26.43
2023-04-19T10:51:39.741Z,26.42
2023-04-19T10:52:39.231Z,26.43
2023-04-19T10:53:39.283Z,26.40
2023-04-19T10:54:39.183Z,26.40
2023-04-19T10:55:39.155Z,26.42
2023-04-19T10:56:39.256Z,26.43
2023-04-19T10:57:39.112Z,26.44
2023-04-19T10:58:39.177Z,26.44
2023-04-19T10:59:39.087Z,26.44
2023-04-19T11:00:39.043Z,26.49
2023-04-19T11:01:39.031Z,26.46
2023-04-19T11:02:39.459Z,26.46
2023-04-19T11:03:39.159Z,26.49
2023-04-19T11:04:39.100Z,26.44
2023-04-19T11:05:38.915Z,26.50
2023-04-19T11:06:38.897Z,26.49
2023-04-19T11:07:38.871Z,26.49
2023-04-19T11:08:38.854Z,26.50
2023-04-19T11:09:38.988Z,26.53
2023-04-19T11:10:38.805Z,26.53
2023-04-19T11:11:39.239Z,26.50
2023-04-19T11:12:38.748Z,26.47
2023-04-19T11:13:38.723Z,26.53
2023-04-19T11:14:38.711Z,26.53
2023-04-19T11:15:38.753Z,26.51
2023-04-19T11:16:45.522Z,26.54
2023-04-19T11:17:38.995Z,26.50
2023-04-19T11:18:38.774Z,26.51
2023-04-19T11:19:38.560Z,26.47
2023-04-19T11:20:38.530Z,26.50
2023-04-19T11:21:38.513Z,26.46
2023-04-19T11:22:38.494Z,26.43
2023-04-19T11:23:38.496Z,26.44
2023-04-19T11:24:38.445Z,26.42
2023-04-19T11:25:38.433Z,26.40
2023-04-19T11:26:38.380Z,26.38
2023-04-19T11:27:38.348Z,26.38
2023-04-19T11:28:38.320Z,26.33
2023-04-19T11:29:38.296Z,26.29
2023-04-19T11:30:38.267Z,26.23
2023-04-19T11:31:38.250Z,26.25
2023-04-19T11:32:38.335Z,26.21
2023-04-19T11:33:38.191Z,26.16
2023-04-19T11:34:38.147Z,26.18
2023-04-19T11:35:38.112Z,26.15
2023-04-19T11:36:38.100Z,26.13
2023-04-19T11:37:38.072Z,26.12
2023-04-19T11:38:38.046Z,26.11
2023-04-19T11:39:38.045Z,26.06
2023-04-19T11:40:38.028Z,26.05
2023-04-19T11:41:38.337Z,25.99
2023-04-19T11:42:38.025Z,25.98
2023-04-19T11:43:38.038Z,25.99
2023-04-19T11:44:38.039Z,25.96
2023-04-19T11:45:39.683Z,25.96
2023-04-19T11:46:38.309Z,25.94
2023-04-19T11:47:38.035Z,25.94
2023-04-19T11:48:37.986Z,25.91
2023-04-19T11:49:37.969Z,25.91
2023-04-19T11:50:38.101Z,25.92
2023-04-19T11:51:37.915Z,25.91
2023-04-19T11:52:37.899Z,25.92
2023-04-19T11:53:37.882Z,25.92
2023-04-19T11:54:37.838Z,25.87
2023-04-19T11:55:37.844Z,25.88
2023-04-19T11:56:38.256Z,25.87
2023-04-19T11:57:38.654Z,25.87
2023-04-19T11:58:37.762Z,25.89
2023-04-19T11:59:37.764Z,25.88
2023-04-19T12:00:37.767Z,25.87
2023-04-19T12:01:37.780Z,25.87
2023-04-19T12:02:37.726Z,25.88
2023-04-19T12:03:37.952Z,25.87
2023-04-19T12:04:37.828Z,25.88
2023-04-19T12:05:37.866Z,25.85
2023-04-19T12:06:37.758Z,25.84
2023-04-19T12:07:37.525Z,25.85
2023-04-19T12:08:37.511Z,25.84
2023-04-19T12:09:37.475Z,25.84
2023-04-19T12:10:37.489Z,25.80
2023-04-19T12:11:37.774Z,25.84
2023-04-19T12:12:37.427Z,25.81
2023-04-19T12:13:37.559Z,25.81
2023-04-19T12:14:37.385Z,25.80
2023-04-19T12:15:37.352Z,25.83
2023-04-19T12:16:37.796Z,25.83
2023-04-19T12:17:40.087Z,25.84
2023-04-19T12:18:37.292Z,25.83
2023-04-19T12:19:37.274Z,25.84
2023-04-19T12:20:37.307Z,25.84
2023-04-19T12:21:37.249Z,25.84
2023-04-19T12:22:37.219Z,25.87
2023-04-19T12:23:37.197Z,25.85
2023-04-19T12:24:37.170Z,25.84
2023-04-19T12:25:37.152Z,25.89
2023-04-19T12:26:37.139Z,25.84
2023-04-19T12:27:37.128Z,25.87
2023-04-19T12:28:37.104Z,25.85
2023-04-19T12:29:37.131Z,25.89
2023-04-19T12:30:37.170Z,25.88
2023-04-19T12:31:37.285Z,25.91
2023-04-19T12:32:37.097Z,25.88
2023-04-19T12:33:37.022Z,25.91
2023-04-19T12:34:37.266Z,25.91
2023-04-19T12:35:36.991Z,25.91
2023-04-19T12:36:36.996Z,25.89
2023-04-19T12:37:36.957Z,25.85
2023-04-19T12:38:36.930Z,25.87
2023-04-19T12:39:36.936Z,25.83
2023-04-19T12:40:36.972Z,25.84
2023-04-19T12:41:36.885Z,25.85
2023-04-19T12:42:36.871Z,25.81
2023-04-19T12:43:36.848Z,25.81
2023-04-19T12:44:36.856Z,25.83
2023-04-19T12:45:36.888Z,25.81
2023-04-19T12:46:36.818Z,25.81
2023-04-19T12:47:36.834Z,25.80
2023-04-19T12:48:36.773Z,25.81
2023-04-19T12:49:36.736Z,25.80
2023-04-19T12:50:36.733Z,25.81
2023-04-19T12:51:36.698Z,25.81
2023-04-19T12:52:36.809Z,25.77
2023-04-19T12:53:36.658Z,25.77
2023-04-19T12:54:36.624Z,25.76
2023-04-19T12:55:36.597Z,25.77
2023-04-19T12:56:36.577Z,25.76
2023-04-19T12:57:36.779Z,25.74